Relevés horaires Bierset (Belgique)


Relevés horaires à Bierset - Samedi 28 Déc. 2019
Heure UTC1 Température [°C] Vent [km/h] Hum. [%] Pres.4 [hPa] Visi. [Km] Nébu. [octa] Préc.5 [mm] Cond.
2m. Res. Ros. Dir.2 Vit. Moy. Raf.3
23:00 0.8 0.8 -2.5 SSE 3.7 11.1 16.7 79 1039.2(-1.0/3h) 30 5/8 -- --
22:00 1.1 -1.8 -2.0 SE 9.3 9.3 11.1 80 1039.4(-0.9/3h) 15 5/8 -- --
21:00 1.1 1.1 -1.3 SSE 3.7 5.6 13.0 84 1040(-0.3/3h) 15 5/8 -- --
20:00 1.4 -0.3 -- SE 5.6 5.6 7.4 -- 1040.1(-0.3/3h) 12 4/8 -- --
19:00 2.6 2.6 -0.3 SSE 3.7 3.7 13.0 81 1040.2(0.0/3h) 12 5/8 -- --
18:00 2.2 2.2 0.1 SE 3.7 5.6 11.1 86 1040.2(0.2/3h) 15 5/8 0/12h
--
17:00 2.2 2.2 -0.1 E 1.9 1.9 9.3 85 1040.3(0.5/3h) 25 5/8 -- --
16:00 2.7 2.7 -0.1 N 1.9 5.6 7.4 82 1040.2(0.3/3h) 25 5/8 -- --
15:00 3.8 3.8 -0.1 ESE 3.7 5.6 11.1 76 1039.9(0.0/3h) 25 5/8 -- --
14:00 4.6 4.6 0.5 SSO 1.9 3.7 11.1 75 1039.7(-0.6/3h) 25 5/8 -- --
13:00 4.2 4.2 -- SSO 1.9 5.6 11.1 -- 1039.8(-0.4/3h) 25 5/8 -- --
12:00 3.4 2 -0.3 SSE 5.6 7.4 16.7 77 1040(-0.4/3h) 25 5/8 0/6h
--
11:00 2.7 2.7 -0.3 S 3.7 7.4 11.1 81 1040.5(0.3/3h) 25 5/8 -- --
10:00 1.7 -0.6 -0.8 SSE 7.4 7.4 14.8 83 1040.4(0.9/3h) 25 5/8 -- --
09:00 1.7 0.1 -0.8 SSE 5.6 5.6 16.7 83 1040.5(1.7/3h) 25 6/8 -- --
08:00 2.2 2.2 -0.4 S 3.7 5.6 16.7 83 1040.2(1.0/3h) 25 7/8 -- --
07:00 2.9 1.5 0.3 S 5.6 5.6 16.7 83 1039.4(0.6/3h) 25 7/8 -- --
06:00 3.4 2 0.8 SE 5.6 5.6 16.7 83 1038.7(0.5/3h) 25 7/8 0/12h
--
05:00 3.5 3.5 1.4 SSE 3.7 3.7 9.3 86 1039.1(1.7/3h) 25 7/8 -- --
04:00 3.5 3.5 1.1 SSE 3.7 5.6 11.1 84 1038.8(1.2/3h) 25 7/8 -- --
03:00 3.8 3.8 1.7 S 3.7 5.6 14.8 86 1038.2(0.4/3h) 25 7/8 -- --
02:00 4.4 3.2 1.7 SE 5.6 5.6 14.8 83 1037.4(0.3/3h) 30 7/8 -- --
01:00 4.8 4.8 1.7 NNO 3.7 5.6 7.4 80 1037.4(1.2/3h) 30 7/8 -- --
00:00 4.9 4.9 2.4 E 1.9 5.6 13.0 84 1037.7(1.9/3h) 30 7/8 0/6h
3.7/24h
--

1 Coordinated Universal Time. Actuellement il est 01:00 locale et 23:00 UTC.

2 Le vent souffle depuis la direction indiquée vers la direction oposée.

3 Les rafales max. sont disponible 40 min après l'heure du relevé.

4 Pour les stations d'altitude (plus de 600m) le géopotentiel du niveau le plus proche de la pression obligatoire est indiqué.

5 Les stations disposant d'un diffuseur peuvent indiquer "trace". Cela signifie que des précipitations ont touchés le sol mais que la quantité est inférieure à 0.1 mm.

Récapitulatif de la journée
Température [°C] Vent [km/h] Ensoleillement4 [h] Precipitations totale5 [mm] Pression [Hpa]
Min1 Max.2 Moy.3 Max. Min Max.
3.4 4.6 5.8 16.7 0 h 0 min 0 1037.4 1040.5

1 Température minimale relevée entre 18:00 UTC la veille et 18:00 UTC le jour donné.

2 Température maximale relevée entre 06:00 UTC le jour donné et 06:00 UTC le lendemain.

3 Vent moyen de la journée basé sur les relevés horaires.

4 Ensoleillement en heures relevé entre 06:00 UTC la veille et 06:00 UTC le jour donné.

5 Précipitations totales tombées entre 06:00 UTC la jour donné et 06:00 UTC le lendemain.

Graphiques horaires